Landis, Arkansas
Current Conditions -  °F | °C
As of 8:15 AM on Wednesday 28 Jan 2015 (Local Time) from KFLP Reporting Station
Clear Clear  
Wind Chill: -1°   Ceiling: Unl
Heat Index:   Visibility: 7mi
Dew Point: -1°   Wind: 7mph
Humidity: 81%   Direction: 100°E
Pressure: 30.2"   Gusts: NA
Location:  35.9407°N, 92.655°W
Report Text: KFLP 281415Z 10006KT 7SM CLR 02/M01 A3020 RMK AO1
Loading
Personal Weather Stations






























Interactive Weather Map New forecast layout! Learn more

10-Day Weather Forecast

Advertisements
Track Severe Weather on mobile